Brookhaven Weather

Current Time: 05:02 Zulu

HWV METARs

Local Time Temperature Dew Point Wind Direction Wind Speed Wind Gust Sky Vis.
2/24/2020 4:56:00 AM 3.9° c 1.7° c 220° 4 kt - CLR 10.0 sm
2/24/2020 3:56:00 AM 4.4° c 1.1° c 220° 6 kt - CLR 10.0 sm
2/24/2020 2:56:00 AM 4.4° c -0.6° c 220° 4 kt - CLR 10.0 sm
2/24/2020 1:56:00 AM 5.0° c -0.6° c 220° 4 kt - CLR 10.0 sm

ISP TAF:

KISP 240234Z 2403/2424 22006KT P6SM SKC 
FM240600 VRB03KT P6SM FEW100 
FM241500 20006KT P6SM SCT250 
FM241800 19010KT P6SM BKN250 
FM242300 19007KT P6SM BKN150
Weather data provided by aviationweather.gov. Pilots must verify weather before flying.